createdAt,value
2019-02-24T00:01:14.783Z,-4.40
2019-02-24T00:03:42.626Z,-4.38
2019-02-24T00:06:10.653Z,-4.39
2019-02-24T00:08:39.697Z,-4.34
2019-02-24T00:11:07.590Z,-4.35
2019-02-24T00:13:35.420Z,-4.42
2019-02-24T00:16:03.360Z,-4.41
2019-02-24T00:18:31.554Z,-4.36
2019-02-24T00:20:59.449Z,-4.39
2019-02-24T00:23:27.502Z,-4.35
2019-02-24T00:25:55.884Z,-4.39
2019-02-24T00:28:23.825Z,-4.40
2019-02-24T00:30:52.031Z,-4.39
2019-02-24T00:33:19.977Z,-4.53
2019-02-24T00:35:48.117Z,-4.58
2019-02-24T00:38:16.203Z,-4.73
2019-02-24T00:40:44.206Z,-4.86
2019-02-24T00:43:13.174Z,-4.82
2019-02-24T00:45:41.759Z,-4.72
2019-02-24T00:48:09.926Z,-4.75
2019-02-24T00:50:38.202Z,-4.77
2019-02-24T00:53:06.229Z,-4.76
2019-02-24T00:55:34.238Z,-4.73
2019-02-24T00:58:02.171Z,-4.72
2019-02-24T01:00:30.046Z,-4.76
2019-02-24T01:02:57.943Z,-4.74
2019-02-24T01:05:25.954Z,-4.65
2019-02-24T01:07:54.086Z,-4.59
2019-02-24T01:10:22.175Z,-4.59
2019-02-24T01:12:50.076Z,-4.56
2019-02-24T01:15:18.090Z,-4.55
2019-02-24T01:17:46.208Z,-4.56
2019-02-24T01:20:14.274Z,-4.64
2019-02-24T01:22:42.326Z,-4.70
2019-02-24T01:25:10.508Z,-4.73
2019-02-24T01:27:38.718Z,-4.74
2019-02-24T01:30:08.669Z,-4.74
2019-02-24T01:32:36.653Z,-5.04
2019-02-24T01:35:04.712Z,-5.00
2019-02-24T01:37:32.728Z,-5.21
2019-02-24T01:40:00.607Z,-5.28
2019-02-24T01:42:28.656Z,-5.27
2019-02-24T01:44:56.380Z,-5.28
2019-02-24T01:47:24.248Z,-5.20
2019-02-24T01:49:52.335Z,-5.27
2019-02-24T01:52:20.731Z,-5.32
2019-02-24T01:54:48.646Z,-5.23
2019-02-24T01:57:16.718Z,-5.18
2019-02-24T01:59:44.808Z,-5.11
2019-02-24T02:02:12.660Z,-5.07
2019-02-24T02:04:40.645Z,-5.39
2019-02-24T02:07:08.568Z,-5.46
2019-02-24T02:09:36.675Z,-5.37
2019-02-24T02:12:06.372Z,-5.35
2019-02-24T02:14:34.389Z,-5.36
2019-02-24T02:17:02.303Z,-5.30
2019-02-24T02:19:30.211Z,-5.27
2019-02-24T02:21:58.053Z,-5.27
2019-02-24T02:24:26.231Z,-5.44
2019-02-24T02:26:54.340Z,-5.45
2019-02-24T02:29:22.362Z,-5.41
2019-02-24T02:31:50.150Z,-5.37
2019-02-24T02:34:18.119Z,-5.40
2019-02-24T02:36:45.912Z,-5.40
2019-02-24T02:39:14.023Z,-5.34
2019-02-24T02:41:41.980Z,-5.37
2019-02-24T02:44:10.219Z,-5.59
2019-02-24T02:46:38.299Z,-5.61
2019-02-24T02:49:06.518Z,-5.59
2019-02-24T02:51:34.619Z,-5.52
2019-02-24T02:54:02.833Z,-5.53
2019-02-24T02:56:30.885Z,-5.54
2019-02-24T02:58:58.939Z,-5.48
2019-02-24T03:01:26.876Z,-5.52
2019-02-24T03:03:54.704Z,-5.45
2019-02-24T03:06:45.199Z,-5.45
2019-02-24T03:09:13.231Z,-5.45
2019-02-24T03:11:41.103Z,-5.44
2019-02-24T03:14:08.961Z,-5.45
2019-02-24T03:16:36.946Z,-5.50
2019-02-24T03:19:04.924Z,-5.47
2019-02-24T03:21:32.810Z,-5.54
2019-02-24T03:24:00.861Z,-5.56
2019-02-24T03:26:28.797Z,-5.57
2019-02-24T03:29:03.808Z,-5.58
2019-02-24T03:31:27.282Z,-5.54
2019-02-24T03:33:55.064Z,-5.60
2019-02-24T03:36:23.065Z,-5.59
2019-02-24T03:38:50.817Z,-5.57
2019-02-24T03:41:18.976Z,-5.59
2019-02-24T03:43:46.976Z,-5.60
2019-02-24T03:46:14.830Z,-5.61
2019-02-24T03:48:42.782Z,-5.63
2019-02-24T03:51:10.762Z,-5.70
2019-02-24T03:53:38.568Z,-5.71
2019-02-24T03:56:06.493Z,-5.90
2019-02-24T03:58:34.391Z,-6.09
2019-02-24T04:01:02.130Z,-5.95
2019-02-24T04:03:30.331Z,-5.94
2019-02-24T04:05:58.381Z,-5.90
2019-02-24T04:08:26.284Z,-5.81
2019-02-24T04:10:54.278Z,-5.84
2019-02-24T04:13:22.181Z,-5.91
2019-02-24T04:15:50.263Z,-5.93
2019-02-24T04:18:18.125Z,-5.89
2019-02-24T04:20:46.103Z,-5.79
2019-02-24T04:23:15.109Z,-6.30
2019-02-24T04:25:42.951Z,-6.30
2019-02-24T04:28:11.068Z,-6.33
2019-02-24T04:30:39.055Z,-6.11
2019-02-24T04:33:06.964Z,-6.08
2019-02-24T04:35:34.818Z,-6.02
2019-02-24T04:38:02.851Z,-5.94
2019-02-24T04:40:30.884Z,-5.92
2019-02-24T04:42:58.949Z,-5.86
2019-02-24T04:45:27.015Z,-5.97
2019-02-24T04:47:54.995Z,-5.96
2019-02-24T04:50:22.952Z,-6.02
2019-02-24T04:52:50.899Z,-6.02
2019-02-24T04:55:18.842Z,-5.92
2019-02-24T04:57:46.752Z,-5.83
2019-02-24T05:00:14.775Z,-5.81
2019-02-24T05:02:42.933Z,-5.95
2019-02-24T05:05:11.011Z,-6.06
2019-02-24T05:07:39.124Z,-6.09
2019-02-24T05:10:07.412Z,-6.09
2019-02-24T05:12:35.541Z,-6.08
2019-02-24T05:15:04.365Z,-6.01
2019-02-24T05:17:33.347Z,-6.03
2019-02-24T05:20:01.311Z,-6.10
2019-02-24T05:22:29.240Z,-6.10
2019-02-24T05:24:57.155Z,-6.11
2019-02-24T05:27:25.124Z,-6.11
2019-02-24T05:29:53.194Z,-6.13
2019-02-24T05:32:21.266Z,-6.10
2019-02-24T05:34:49.268Z,-6.15
2019-02-24T05:37:17.284Z,-6.12
2019-02-24T05:39:46.233Z,-6.35
2019-02-24T05:42:14.253Z,-6.46
2019-02-24T05:44:42.386Z,-6.31
2019-02-24T05:47:10.183Z,-6.24
2019-02-24T05:49:38.210Z,-6.18
2019-02-24T05:52:06.291Z,-6.21
2019-02-24T05:54:34.435Z,-6.28
2019-02-24T05:57:02.483Z,-6.49
2019-02-24T05:59:30.440Z,-6.53
2019-02-24T06:01:58.562Z,-6.45
2019-02-24T06:04:26.602Z,-6.32
2019-02-24T06:06:54.649Z,-6.19
2019-02-24T06:09:22.881Z,-6.05
2019-02-24T06:11:50.923Z,-5.98
2019-02-24T06:14:18.970Z,-5.98
2019-02-24T06:16:46.989Z,-5.91
2019-02-24T06:19:15.034Z,-5.82
2019-02-24T06:21:43.076Z,-5.74
2019-02-24T06:24:11.349Z,-5.65
2019-02-24T06:26:39.464Z,-5.53
2019-02-24T06:29:07.594Z,-5.45
2019-02-24T06:31:35.501Z,-5.47
2019-02-24T06:34:03.467Z,-5.36
2019-02-24T06:36:31.461Z,-5.16
2019-02-24T06:38:59.407Z,-4.98
2019-02-24T06:41:27.487Z,-4.79
2019-02-24T06:43:55.415Z,-4.48
2019-02-24T06:46:24.269Z,-4.04
2019-02-24T06:48:52.183Z,-3.65
2019-02-24T06:51:20.194Z,-3.44
2019-02-24T06:53:48.118Z,-3.18
2019-02-24T06:56:15.922Z,-2.91
2019-02-24T06:58:44.770Z,-3.02
2019-02-24T07:01:13.096Z,-3.07
2019-02-24T07:03:41.407Z,-3.14
2019-02-24T07:06:09.264Z,-2.78
2019-02-24T07:08:37.364Z,-2.76
2019-02-24T07:11:05.371Z,-2.84
2019-02-24T07:13:33.370Z,-2.53
2019-02-24T07:16:01.431Z,-2.35
2019-02-24T07:18:29.517Z,-1.98
2019-02-24T07:20:57.586Z,-1.68
2019-02-24T07:23:25.529Z,-1.31
2019-02-24T07:25:53.355Z,-0.72
2019-02-24T07:28:21.282Z,-0.53
2019-02-24T07:30:49.153Z,-0.21
2019-02-24T07:33:17.108Z,0.19
2019-02-24T07:35:45.022Z,0.43
2019-02-24T07:38:12.878Z,1.18
2019-02-24T07:40:40.907Z,1.01
2019-02-24T07:43:09.016Z,1.09
2019-02-24T07:45:37.094Z,1.46
2019-02-24T07:48:04.978Z,1.10
2019-02-24T07:50:32.765Z,0.46
2019-02-24T07:53:00.808Z,0.30
2019-02-24T07:55:28.788Z,-0.25
2019-02-24T07:57:56.616Z,-0.29
2019-02-24T08:00:31.921Z,0.05
2019-02-24T08:02:54.511Z,0.59
2019-02-24T08:05:22.467Z,0.77
2019-02-24T08:07:50.561Z,1.34
2019-02-24T08:10:18.366Z,1.88
2019-02-24T08:12:46.643Z,2.38
2019-02-24T08:15:14.625Z,2.27
2019-02-24T08:17:42.655Z,2.15
2019-02-24T08:20:10.558Z,2.16
2019-02-24T08:22:38.755Z,2.15
2019-02-24T08:25:06.676Z,1.80
2019-02-24T08:27:34.532Z,1.60
2019-02-24T08:30:02.660Z,1.22
2019-02-24T08:32:32.373Z,1.32
2019-02-24T08:35:01.097Z,1.34
2019-02-24T08:37:30.093Z,1.58
2019-02-24T08:39:58.055Z,1.76
2019-02-24T08:42:25.833Z,1.67
2019-02-24T08:44:53.755Z,1.69
2019-02-24T08:47:21.652Z,1.45
2019-02-24T08:49:49.716Z,1.50
2019-02-24T08:52:17.721Z,1.52
2019-02-24T08:54:45.645Z,1.22
2019-02-24T08:57:13.645Z,1.48
2019-02-24T08:59:41.611Z,1.84
2019-02-24T09:02:09.552Z,2.06
2019-02-24T09:04:38.052Z,2.13
2019-02-24T09:07:05.978Z,2.05
2019-02-24T09:09:33.871Z,2.39
2019-02-24T09:12:01.958Z,2.52
2019-02-24T09:14:29.618Z,2.61
2019-02-24T09:16:57.462Z,2.72
2019-02-24T09:19:25.364Z,2.83
2019-02-24T09:21:53.225Z,2.81
2019-02-24T09:24:21.086Z,2.94
2019-02-24T09:26:48.974Z,3.04
2019-02-24T09:29:18.066Z,3.20
2019-02-24T09:31:46.304Z,3.20
2019-02-24T09:34:14.434Z,3.14
2019-02-24T09:36:42.540Z,3.28
2019-02-24T09:39:10.616Z,3.20
2019-02-24T09:41:38.687Z,3.18
2019-02-24T09:44:06.682Z,3.12
2019-02-24T09:46:34.884Z,3.21
2019-02-24T09:49:03.083Z,2.93
2019-02-24T09:51:31.220Z,3.01
2019-02-24T09:53:59.351Z,3.05
2019-02-24T09:56:27.341Z,3.05
2019-02-24T09:58:55.350Z,2.90
2019-02-24T10:01:23.413Z,2.88
2019-02-24T10:03:51.201Z,2.84
2019-02-24T10:06:19.250Z,2.84
2019-02-24T10:08:47.178Z,3.01
2019-02-24T10:11:15.276Z,2.84
2019-02-24T10:13:43.252Z,2.57
2019-02-24T10:16:11.331Z,2.55
2019-02-24T10:18:39.393Z,2.74
2019-02-24T10:21:07.305Z,2.76
2019-02-24T10:23:35.175Z,2.55
2019-02-24T10:26:03.421Z,2.42
2019-02-24T10:28:31.380Z,2.55
2019-02-24T10:30:59.261Z,2.57
2019-02-24T10:33:27.143Z,2.59
2019-02-24T10:35:55.213Z,2.43
2019-02-24T10:38:23.406Z,2.38
2019-02-24T10:40:51.641Z,2.47
2019-02-24T10:43:19.451Z,2.44
2019-02-24T10:45:47.645Z,2.21
2019-02-24T10:48:15.647Z,2.14
2019-02-24T10:50:43.822Z,2.25
2019-02-24T10:53:11.695Z,2.18
2019-02-24T10:55:39.798Z,2.09
2019-02-24T10:58:07.560Z,2.12
2019-02-24T11:00:35.732Z,2.21
2019-02-24T11:03:03.714Z,2.13
2019-02-24T11:05:31.764Z,2.16
2019-02-24T11:07:59.644Z,2.14
2019-02-24T11:10:27.690Z,2.21
2019-02-24T11:12:55.614Z,2.14
2019-02-24T11:15:23.525Z,2.01
2019-02-24T11:17:51.538Z,2.13
2019-02-24T11:20:19.550Z,2.04
2019-02-24T11:22:47.229Z,2.24
2019-02-24T11:25:15.508Z,2.22
2019-02-24T11:27:43.403Z,2.23
2019-02-24T11:30:11.359Z,2.24
2019-02-24T11:32:39.433Z,2.20
2019-02-24T11:35:07.707Z,2.21
2019-02-24T11:37:35.608Z,2.20
2019-02-24T11:40:04.268Z,2.20
2019-02-24T11:42:32.248Z,2.17
2019-02-24T11:45:00.330Z,2.10
2019-02-24T11:47:28.409Z,1.97
2019-02-24T11:49:56.503Z,2.15
2019-02-24T11:52:24.581Z,2.18
2019-02-24T11:54:52.366Z,2.25
2019-02-24T11:57:20.173Z,2.33
2019-02-24T11:59:48.109Z,2.42
2019-02-24T12:02:16.089Z,2.51
2019-02-24T12:04:44.665Z,2.49
2019-02-24T12:07:12.471Z,2.48
2019-02-24T12:09:40.598Z,2.55
2019-02-24T12:12:08.451Z,2.62
2019-02-24T12:14:36.431Z,2.66
2019-02-24T12:17:04.397Z,2.83
2019-02-24T12:19:32.580Z,2.79
2019-02-24T12:22:00.577Z,2.82
2019-02-24T12:24:28.549Z,2.82
2019-02-24T12:26:56.499Z,2.78
2019-02-24T12:29:24.771Z,2.73
2019-02-24T12:31:56.516Z,2.73
2019-02-24T12:34:22.435Z,2.74
2019-02-24T12:36:50.302Z,2.73
2019-02-24T12:39:18.267Z,2.77
2019-02-24T12:41:46.409Z,2.76
2019-02-24T12:44:14.247Z,2.91
2019-02-24T12:46:42.050Z,3.03
2019-02-24T12:49:10.088Z,3.11
2019-02-24T12:51:38.006Z,3.12
2019-02-24T12:54:06.060Z,3.29
2019-02-24T12:56:34.131Z,3.46
2019-02-24T12:59:01.942Z,3.44
2019-02-24T13:01:29.790Z,3.61
2019-02-24T13:03:57.772Z,3.70
2019-02-24T13:06:25.793Z,3.57
2019-02-24T13:08:53.675Z,3.65
2019-02-24T13:11:21.976Z,3.75
2019-02-24T13:13:49.844Z,3.87
2019-02-24T13:16:17.951Z,3.97
2019-02-24T13:18:45.911Z,4.06
2019-02-24T13:21:13.806Z,3.91
2019-02-24T13:23:41.701Z,3.90
2019-02-24T13:26:09.672Z,4.11
2019-02-24T13:28:37.788Z,4.09
2019-02-24T13:31:05.752Z,4.14
2019-02-24T13:33:33.638Z,4.08
2019-02-24T13:36:01.799Z,4.15
2019-02-24T13:38:29.997Z,4.11
2019-02-24T13:40:57.719Z,4.27
2019-02-24T13:43:25.736Z,4.85
2019-02-24T13:45:54.946Z,5.11
2019-02-24T13:48:22.783Z,5.25
2019-02-24T13:50:50.734Z,5.57
2019-02-24T13:53:18.660Z,5.74
2019-02-24T13:55:46.588Z,5.82
2019-02-24T13:58:14.926Z,5.64
2019-02-24T14:00:42.892Z,5.89
2019-02-24T14:03:11.849Z,6.06
2019-02-24T14:05:39.779Z,6.23
2019-02-24T14:08:07.880Z,6.30
2019-02-24T14:10:35.804Z,6.28
2019-02-24T14:13:03.865Z,6.69
2019-02-24T14:15:31.831Z,6.93
2019-02-24T14:17:59.741Z,6.64
2019-02-24T14:20:28.999Z,6.54
2019-02-24T14:22:56.836Z,6.06
2019-02-24T14:25:24.759Z,6.18
2019-02-24T14:27:52.926Z,6.02
2019-02-24T14:30:20.958Z,5.88
2019-02-24T14:32:49.006Z,5.51
2019-02-24T14:35:17.200Z,5.38
2019-02-24T14:37:44.940Z,5.46
2019-02-24T14:40:13.033Z,5.33
2019-02-24T14:42:41.153Z,5.11
2019-02-24T14:45:11.695Z,4.96
2019-02-24T14:47:39.731Z,4.83
2019-02-24T14:50:08.218Z,4.93
2019-02-24T14:52:36.360Z,4.80
2019-02-24T14:55:04.061Z,4.65
2019-02-24T14:57:32.206Z,4.44
2019-02-24T15:00:00.282Z,4.51
2019-02-24T15:02:28.229Z,4.36
2019-02-24T15:04:56.140Z,4.29
2019-02-24T15:07:24.372Z,4.29
2019-02-24T15:09:52.195Z,4.09
2019-02-24T15:12:20.231Z,4.02
2019-02-24T15:14:48.217Z,4.03
2019-02-24T15:17:16.069Z,4.05
2019-02-24T15:19:43.973Z,4.01
2019-02-24T15:22:11.895Z,3.97
2019-02-24T15:24:39.791Z,4.05
2019-02-24T15:27:07.882Z,3.93
2019-02-24T15:29:35.856Z,3.83
2019-02-24T15:32:03.874Z,3.82
2019-02-24T15:34:32.179Z,3.84
2019-02-24T15:37:00.084Z,3.76
2019-02-24T15:39:28.062Z,3.81
2019-02-24T15:41:56.063Z,3.78
2019-02-24T15:44:24.056Z,3.83
2019-02-24T15:46:52.363Z,3.88
2019-02-24T15:49:20.257Z,3.89
2019-02-24T15:51:49.341Z,3.89
2019-02-24T15:54:17.449Z,3.80
2019-02-24T15:56:45.567Z,3.70
2019-02-24T15:59:13.460Z,3.67
2019-02-24T16:01:41.533Z,3.61
2019-02-24T16:04:09.337Z,3.62
2019-02-24T16:06:37.568Z,3.60
2019-02-24T16:09:05.684Z,3.64
2019-02-24T16:11:34.115Z,3.67
2019-02-24T16:14:01.949Z,3.68
2019-02-24T16:16:30.088Z,3.68
2019-02-24T16:18:57.990Z,3.67
2019-02-24T16:21:26.124Z,3.67
2019-02-24T16:23:54.183Z,3.73
2019-02-24T16:26:22.563Z,3.68
2019-02-24T16:28:50.820Z,3.67
2019-02-24T16:31:18.944Z,3.58
2019-02-24T16:33:46.912Z,3.62
2019-02-24T16:36:14.924Z,3.67
2019-02-24T16:38:43.175Z,3.71
2019-02-24T16:41:11.161Z,3.71
2019-02-24T16:43:39.292Z,3.68
2019-02-24T16:46:07.363Z,3.60
2019-02-24T16:48:35.385Z,3.57
2019-02-24T16:51:04.549Z,3.58
2019-02-24T16:53:32.640Z,3.64
2019-02-24T16:56:00.899Z,3.64
2019-02-24T16:58:28.942Z,3.61
2019-02-24T17:00:56.988Z,3.56
2019-02-24T17:03:26.076Z,3.47
2019-02-24T17:05:54.087Z,3.47
2019-02-24T17:08:23.112Z,3.51
2019-02-24T17:10:51.146Z,3.44
2019-02-24T17:13:19.176Z,3.42
2019-02-24T17:15:47.126Z,3.43
2019-02-24T17:18:15.126Z,3.40
2019-02-24T17:20:43.169Z,3.31
2019-02-24T17:23:11.549Z,3.24
2019-02-24T17:25:39.664Z,3.32
2019-02-24T17:28:07.567Z,3.41
2019-02-24T17:30:36.694Z,3.48
2019-02-24T17:33:04.879Z,3.51
2019-02-24T17:35:33.241Z,3.50
2019-02-24T17:38:01.282Z,3.50
2019-02-24T17:40:29.221Z,3.47
2019-02-24T17:42:57.243Z,3.45
2019-02-24T17:45:25.443Z,3.47
2019-02-24T17:47:53.659Z,3.41
2019-02-24T17:50:21.616Z,3.35
2019-02-24T17:52:49.606Z,3.30
2019-02-24T17:55:17.645Z,3.34
2019-02-24T17:57:45.760Z,3.23
2019-02-24T18:00:22.522Z,3.15
2019-02-24T18:02:50.490Z,3.11
2019-02-24T18:05:18.426Z,3.07
2019-02-24T18:07:46.607Z,3.02
2019-02-24T18:10:14.577Z,2.99
2019-02-24T18:12:42.505Z,3.01
2019-02-24T18:15:10.815Z,3.04
2019-02-24T18:17:38.838Z,3.05
2019-02-24T18:20:07.890Z,3.05
2019-02-24T18:22:35.888Z,3.07
2019-02-24T18:25:04.023Z,3.10
2019-02-24T18:27:32.080Z,3.15
2019-02-24T18:30:00.295Z,3.17
2019-02-24T18:32:28.337Z,3.24
2019-02-24T18:34:56.310Z,3.19
2019-02-24T18:37:25.555Z,3.10
2019-02-24T18:39:53.659Z,3.03
2019-02-24T18:42:21.598Z,3.00
2019-02-24T18:44:50.204Z,2.98
2019-02-24T18:47:18.310Z,3.06
2019-02-24T18:49:46.245Z,3.01
2019-02-24T18:52:14.375Z,3.04
2019-02-24T18:54:42.598Z,3.09
2019-02-24T18:57:10.730Z,3.05
2019-02-24T18:59:38.833Z,3.11
2019-02-24T19:02:06.979Z,3.06
2019-02-24T19:04:34.942Z,3.08
2019-02-24T19:07:03.056Z,3.00
2019-02-24T19:09:31.811Z,2.99
2019-02-24T19:12:00.099Z,3.11
2019-02-24T19:14:29.670Z,3.13
2019-02-24T19:16:57.746Z,3.17
2019-02-24T19:19:25.953Z,3.23
2019-02-24T19:21:53.904Z,3.26
2019-02-24T19:24:21.941Z,3.26
2019-02-24T19:26:50.049Z,3.24
2019-02-24T19:29:17.948Z,3.22
2019-02-24T19:31:45.884Z,3.22
2019-02-24T19:34:13.749Z,3.12
2019-02-24T19:36:41.780Z,3.11
2019-02-24T19:39:13.004Z,3.06
2019-02-24T19:41:41.253Z,3.01
2019-02-24T19:44:09.345Z,3.03
2019-02-24T19:46:38.011Z,3.02
2019-02-24T19:49:05.822Z,3.03
2019-02-24T19:51:34.803Z,3.09
2019-02-24T19:54:02.766Z,3.09
2019-02-24T19:56:31.091Z,3.08
2019-02-24T19:58:59.998Z,3.11
2019-02-24T20:01:28.097Z,3.13
2019-02-24T20:03:56.194Z,3.12
2019-02-24T20:06:24.118Z,3.12
2019-02-24T20:08:52.116Z,3.21
2019-02-24T20:11:20.174Z,3.21
2019-02-24T20:13:48.142Z,3.22
2019-02-24T20:16:16.616Z,3.28
2019-02-24T20:18:44.534Z,3.26
2019-02-24T20:21:12.401Z,3.18
2019-02-24T20:23:40.310Z,3.06
2019-02-24T20:26:08.584Z,2.96
2019-02-24T20:28:36.829Z,2.90
2019-02-24T20:31:05.052Z,2.90
2019-02-24T20:33:32.926Z,2.95
2019-02-24T20:36:00.966Z,3.05
2019-02-24T20:38:28.892Z,3.09
2019-02-24T20:40:57.771Z,3.04
2019-02-24T20:43:25.724Z,3.01
2019-02-24T20:45:53.843Z,2.97
2019-02-24T20:48:21.806Z,3.01
2019-02-24T20:50:51.254Z,3.08
2019-02-24T20:53:19.579Z,3.15
2019-02-24T20:55:47.677Z,3.15
2019-02-24T20:58:15.575Z,3.11
2019-02-24T21:00:43.756Z,3.08
2019-02-24T21:03:11.663Z,3.15
2019-02-24T21:05:39.780Z,3.15
2019-02-24T21:08:08.144Z,3.18
2019-02-24T21:10:36.303Z,3.24
2019-02-24T21:13:04.242Z,3.18
2019-02-24T21:15:32.337Z,3.16
2019-02-24T21:18:01.424Z,3.16
2019-02-24T21:20:29.693Z,3.18
2019-02-24T21:22:57.807Z,3.19
2019-02-24T21:25:25.715Z,3.18
2019-02-24T21:27:53.579Z,3.20
2019-02-24T21:30:21.642Z,3.19
2019-02-24T21:32:49.658Z,3.20
2019-02-24T21:35:17.759Z,3.19
2019-02-24T21:37:45.790Z,3.16
2019-02-24T21:40:13.865Z,3.11
2019-02-24T21:42:41.772Z,3.00
2019-02-24T21:45:11.919Z,3.01
2019-02-24T21:47:39.866Z,2.98
2019-02-24T21:50:08.778Z,2.97
2019-02-24T21:52:38.354Z,2.96
2019-02-24T21:55:06.570Z,2.95
2019-02-24T21:57:34.557Z,2.97
2019-02-24T22:00:02.514Z,2.84
2019-02-24T22:02:31.154Z,2.77
2019-02-24T22:04:59.277Z,2.86
2019-02-24T22:07:27.229Z,2.82
2019-02-24T22:09:55.412Z,2.77
2019-02-24T22:12:23.378Z,2.79
2019-02-24T22:14:51.342Z,2.83
2019-02-24T22:17:19.454Z,2.91
2019-02-24T22:19:47.489Z,2.89
2019-02-24T22:22:15.493Z,2.91
2019-02-24T22:24:43.488Z,2.94
2019-02-24T22:27:12.542Z,2.92
2019-02-24T22:29:40.590Z,2.91
2019-02-24T22:32:08.591Z,3.02
2019-02-24T22:34:36.312Z,3.02
2019-02-24T22:37:04.429Z,2.93
2019-02-24T22:39:32.364Z,3.00
2019-02-24T22:42:00.439Z,2.96
2019-02-24T22:44:31.504Z,3.01
2019-02-24T22:46:59.652Z,3.01
2019-02-24T22:49:27.647Z,3.01
2019-02-24T22:51:55.939Z,3.03
2019-02-24T22:54:23.964Z,3.04
2019-02-24T22:56:51.890Z,3.00
2019-02-24T22:59:19.940Z,3.07
2019-02-24T23:01:48.729Z,3.13
2019-02-24T23:04:16.534Z,3.08
2019-02-24T23:06:44.526Z,3.07
2019-02-24T23:09:15.940Z,2.98
2019-02-24T23:11:43.922Z,2.99
2019-02-24T23:14:11.889Z,3.09
2019-02-24T23:16:39.700Z,2.91
2019-02-24T23:19:07.727Z,2.98
2019-02-24T23:21:35.625Z,2.86
2019-02-24T23:24:03.679Z,2.92
2019-02-24T23:26:31.829Z,2.95
2019-02-24T23:28:59.813Z,2.92
2019-02-24T23:31:27.626Z,2.94
2019-02-24T23:33:55.774Z,2.87
2019-02-24T23:36:23.927Z,2.95
2019-02-24T23:38:51.889Z,3.05
2019-02-24T23:41:20.173Z,3.02
2019-02-24T23:43:48.074Z,3.02
2019-02-24T23:46:16.144Z,3.08
2019-02-24T23:48:43.971Z,3.06
2019-02-24T23:51:13.268Z,3.05
2019-02-24T23:53:41.102Z,3.11
2019-02-24T23:56:09.016Z,3.09
2019-02-24T23:58:37.114Z,3.12
